sensor_id;sensor_type;location;lat;lon;timestamp;P1;durP1;ratioP1;P2;durP2;ratioP2
7302;SDS011;54309;48.150;11.540;2022-10-03T00:02:19;3.83;;;2.33;;
7302;SDS011;54309;48.150;11.540;2022-10-03T00:04:53;5.07;;;2.00;;
7302;SDS011;54309;48.150;11.540;2022-10-03T00:07:35;5.67;;;2.50;;
7302;SDS011;54309;48.150;11.540;2022-10-03T00:10:11;2.73;;;2.37;;
7302;SDS011;54309;48.150;11.540;2022-10-03T00:12:45;3.23;;;2.60;;
7302;SDS011;54309;48.150;11.540;2022-10-03T00:15:17;4.83;;;3.03;;
7302;SDS011;54309;48.150;11.540;2022-10-03T00:17:48;3.40;;;2.50;;
7302;SDS011;54309;48.150;11.540;2022-10-03T00:20:29;3.73;;;2.40;;
7302;SDS011;54309;48.150;11.540;2022-10-03T00:23:00;3.60;;;2.90;;
7302;SDS011;54309;48.150;11.540;2022-10-03T00:25:31;3.97;;;2.63;;
7302;SDS011;54309;48.150;11.540;2022-10-03T00:28:09;3.80;;;3.10;;
7302;SDS011;54309;48.150;11.540;2022-10-03T00:30:42;3.87;;;2.70;;
7302;SDS011;54309;48.150;11.540;2022-10-03T00:33:14;4.27;;;2.83;;
7302;SDS011;54309;48.150;11.540;2022-10-03T00:35:54;5.23;;;3.20;;
7302;SDS011;54309;48.150;11.540;2022-10-03T00:38:33;5.67;;;2.87;;
7302;SDS011;54309;48.150;11.540;2022-10-03T00:41:15;5.03;;;3.20;;
7302;SDS011;54309;48.150;11.540;2022-10-03T00:46:41;4.23;;;2.90;;
7302;SDS011;54309;48.150;11.540;2022-10-03T00:49:24;4.90;;;3.53;;
7302;SDS011;54309;48.150;11.540;2022-10-03T00:51:55;6.03;;;3.20;;
7302;SDS011;54309;48.150;11.540;2022-10-03T00:54:34;3.90;;;2.77;;
7302;SDS011;54309;48.150;11.540;2022-10-03T00:57:09;5.33;;;3.37;;
7302;SDS011;54309;48.150;11.540;2022-10-03T00:59:45;5.53;;;3.30;;
7302;SDS011;54309;48.150;11.540;2022-10-03T01:02:22;7.40;;;3.30;;
7302;SDS011;54309;48.150;11.540;2022-10-03T01:04:52;4.50;;;3.40;;
7302;SDS011;54309;48.150;11.540;2022-10-03T01:07:30;4.40;;;3.20;;
7302;SDS011;54309;48.150;11.540;2022-10-03T01:10:09;5.43;;;3.30;;
7302;SDS011;54309;48.150;11.540;2022-10-03T01:12:48;4.93;;;3.40;;
7302;SDS011;54309;48.150;11.540;2022-10-03T01:15:22;5.10;;;3.73;;
7302;SDS011;54309;48.150;11.540;2022-10-03T01:17:58;4.93;;;3.67;;
7302;SDS011;54309;48.150;11.540;2022-10-03T01:20:27;6.47;;;3.57;;
7302;SDS011;54309;48.150;11.540;2022-10-03T01:25:38;5.17;;;3.57;;
7302;SDS011;54309;48.150;11.540;2022-10-03T01:28:19;5.57;;;4.03;;
7302;SDS011;54309;48.150;11.540;2022-10-03T01:31:09;7.87;;;4.53;;
7302;SDS011;54309;48.150;11.540;2022-10-03T01:33:38;6.63;;;3.47;;
7302;SDS011;54309;48.150;11.540;2022-10-03T01:36:09;5.87;;;3.27;;
7302;SDS011;54309;48.150;11.540;2022-10-03T01:38:40;6.30;;;4.03;;
7302;SDS011;54309;48.150;11.540;2022-10-03T01:41:10;6.70;;;4.43;;
7302;SDS011;54309;48.150;11.540;2022-10-03T01:43:43;8.93;;;4.33;;
7302;SDS011;54309;48.150;11.540;2022-10-03T01:46:15;9.60;;;4.60;;
7302;SDS011;54309;48.150;11.540;2022-10-03T01:48:46;10.70;;;4.50;;
7302;SDS011;54309;48.150;11.540;2022-10-03T01:51:18;9.33;;;4.07;;
7302;SDS011;54309;48.150;11.540;2022-10-03T01:56:32;8.17;;;4.23;;
7302;SDS011;54309;48.150;11.540;2022-10-03T01:59:03;8.67;;;3.47;;
7302;SDS011;54309;48.150;11.540;2022-10-03T02:01:33;7.93;;;4.33;;
7302;SDS011;54309;48.150;11.540;2022-10-03T02:04:04;7.87;;;4.33;;
7302;SDS011;54309;48.150;11.540;2022-10-03T02:06:35;6.70;;;4.27;;
7302;SDS011;54309;48.150;11.540;2022-10-03T02:09:08;7.30;;;3.97;;
7302;SDS011;54309;48.150;11.540;2022-10-03T02:11:38;6.43;;;4.03;;
7302;SDS011;54309;48.150;11.540;2022-10-03T02:14:16;8.57;;;4.23;;
7302;SDS011;54309;48.150;11.540;2022-10-03T02:16:52;5.73;;;4.00;;
7302;SDS011;54309;48.150;11.540;2022-10-03T02:19:23;6.50;;;3.83;;
7302;SDS011;54309;48.150;11.540;2022-10-03T02:21:52;9.30;;;4.13;;
7302;SDS011;54309;48.150;11.540;2022-10-03T02:24:42;5.90;;;3.67;;
7302;SDS011;54309;48.150;11.540;2022-10-03T02:27:19;5.67;;;3.83;;
7302;SDS011;54309;48.150;11.540;2022-10-03T02:30:04;6.73;;;4.53;;
7302;SDS011;54309;48.150;11.540;2022-10-03T02:33:03;8.90;;;5.00;;
7302;SDS011;54309;48.150;11.540;2022-10-03T02:35:54;6.97;;;4.50;;
7302;SDS011;54309;48.150;11.540;2022-10-03T02:38:29;9.47;;;4.97;;
7302;SDS011;54309;48.150;11.540;2022-10-03T02:41:07;8.60;;;4.80;;
7302;SDS011;54309;48.150;11.540;2022-10-03T02:49:32;10.83;;;5.23;;
7302;SDS011;54309;48.150;11.540;2022-10-03T02:52:07;9.20;;;4.70;;
7302;SDS011;54309;48.150;11.540;2022-10-03T03:00:11;8.60;;;4.87;;
7302;SDS011;54309;48.150;11.540;2022-10-03T03:05:41;9.50;;;5.73;;
7302;SDS011;54309;48.150;11.540;2022-10-03T03:10:58;9.23;;;5.33;;
7302;SDS011;54309;48.150;11.540;2022-10-03T03:13:35;8.07;;;5.07;;
7302;SDS011;54309;48.150;11.540;2022-10-03T03:19:18;8.27;;;4.57;;
7302;SDS011;54309;48.150;11.540;2022-10-03T03:21:50;8.57;;;5.23;;
7302;SDS011;54309;48.150;11.540;2022-10-03T03:24:21;9.20;;;5.20;;
7302;SDS011;54309;48.150;11.540;2022-10-03T03:27:01;9.43;;;5.07;;
7302;SDS011;54309;48.150;11.540;2022-10-03T03:29:35;8.40;;;5.00;;
7302;SDS011;54309;48.150;11.540;2022-10-03T03:32:07;9.07;;;5.67;;
7302;SDS011;54309;48.150;11.540;2022-10-03T03:34:39;8.53;;;5.23;;
7302;SDS011;54309;48.150;11.540;2022-10-03T03:37:10;13.17;;;5.77;;
7302;SDS011;54309;48.150;11.540;2022-10-03T03:39:44;10.97;;;5.70;;
7302;SDS011;54309;48.150;11.540;2022-10-03T03:42:22;11.00;;;5.93;;
7302;SDS011;54309;48.150;11.540;2022-10-03T03:45:01;10.27;;;5.93;;
7302;SDS011;54309;48.150;11.540;2022-10-03T03:47:35;9.37;;;5.80;;
7302;SDS011;54309;48.150;11.540;2022-10-03T03:50:12;11.20;;;6.30;;
7302;SDS011;54309;48.150;11.540;2022-10-03T03:52:45;14.43;;;6.23;;
7302;SDS011;54309;48.150;11.540;2022-10-03T03:55:23;11.23;;;5.50;;
7302;SDS011;54309;48.150;11.540;2022-10-03T03:57:59;10.63;;;5.87;;
7302;SDS011;54309;48.150;11.540;2022-10-03T04:00:34;13.93;;;6.17;;
7302;SDS011;54309;48.150;11.540;2022-10-03T04:03:12;12.97;;;5.67;;
7302;SDS011;54309;48.150;11.540;2022-10-03T04:05:51;15.43;;;6.47;;
7302;SDS011;54309;48.150;11.540;2022-10-03T04:08:36;12.47;;;6.30;;
7302;SDS011;54309;48.150;11.540;2022-10-03T04:11:09;11.70;;;6.07;;
7302;SDS011;54309;48.150;11.540;2022-10-03T04:13:47;10.60;;;5.83;;
7302;SDS011;54309;48.150;11.540;2022-10-03T04:16:31;12.53;;;6.90;;
7302;SDS011;54309;48.150;11.540;2022-10-03T04:19:22;12.07;;;6.13;;
7302;SDS011;54309;48.150;11.540;2022-10-03T04:21:58;13.73;;;6.40;;
7302;SDS011;54309;48.150;11.540;2022-10-03T04:24:39;12.13;;;6.90;;
7302;SDS011;54309;48.150;11.540;2022-10-03T04:27:22;11.03;;;6.10;;
7302;SDS011;54309;48.150;11.540;2022-10-03T04:29:52;10.67;;;5.90;;
7302;SDS011;54309;48.150;11.540;2022-10-03T04:32:30;12.27;;;6.57;;
7302;SDS011;54309;48.150;11.540;2022-10-03T04:35:05;11.60;;;6.40;;
7302;SDS011;54309;48.150;11.540;2022-10-03T04:37:38;11.67;;;6.07;;
7302;SDS011;54309;48.150;11.540;2022-10-03T04:40:20;12.50;;;5.80;;
7302;SDS011;54309;48.150;11.540;2022-10-03T04:42:52;11.50;;;5.63;;
7302;SDS011;54309;48.150;11.540;2022-10-03T04:45:33;15.63;;;6.10;;
7302;SDS011;54309;48.150;11.540;2022-10-03T04:48:04;9.63;;;5.97;;
7302;SDS011;54309;48.150;11.540;2022-10-03T04:50:36;11.87;;;5.67;;
7302;SDS011;54309;48.150;11.540;2022-10-03T04:53:09;10.67;;;5.30;;
7302;SDS011;54309;48.150;11.540;2022-10-03T04:55:41;8.90;;;5.70;;
7302;SDS011;54309;48.150;11.540;2022-10-03T04:58:16;9.83;;;5.47;;
7302;SDS011;54309;48.150;11.540;2022-10-03T05:00:46;8.97;;;5.27;;
7302;SDS011;54309;48.150;11.540;2022-10-03T05:03:18;10.07;;;6.37;;
7302;SDS011;54309;48.150;11.540;2022-10-03T05:05:49;11.47;;;5.93;;
7302;SDS011;54309;48.150;11.540;2022-10-03T05:08:18;12.50;;;6.50;;
7302;SDS011;54309;48.150;11.540;2022-10-03T05:11:06;10.77;;;5.83;;
7302;SDS011;54309;48.150;11.540;2022-10-03T05:13:39;12.97;;;6.30;;
7302;SDS011;54309;48.150;11.540;2022-10-03T05:16:14;10.57;;;6.10;;
7302;SDS011;54309;48.150;11.540;2022-10-03T05:18:46;9.63;;;6.30;;
7302;SDS011;54309;48.150;11.540;2022-10-03T05:21:20;12.50;;;6.83;;
7302;SDS011;54309;48.150;11.540;2022-10-03T05:23:51;12.27;;;6.73;;
7302;SDS011;54309;48.150;11.540;2022-10-03T05:26:30;13.00;;;6.10;;
7302;SDS011;54309;48.150;11.540;2022-10-03T05:29:01;8.73;;;5.40;;
7302;SDS011;54309;48.150;11.540;2022-10-03T05:31:34;9.20;;;5.43;;
7302;SDS011;54309;48.150;11.540;2022-10-03T05:34:08;10.67;;;5.60;;
7302;SDS011;54309;48.150;11.540;2022-10-03T05:36:44;10.50;;;5.77;;
7302;SDS011;54309;48.150;11.540;2022-10-03T05:39:19;11.57;;;5.50;;
7302;SDS011;54309;48.150;11.540;2022-10-03T05:41:52;9.77;;;5.23;;
7302;SDS011;54309;48.150;11.540;2022-10-03T05:44:24;8.87;;;5.30;;
7302;SDS011;54309;48.150;11.540;2022-10-03T05:46:57;9.30;;;5.20;;
7302;SDS011;54309;48.150;11.540;2022-10-03T05:49:36;10.30;;;4.97;;
7302;SDS011;54309;48.150;11.540;2022-10-03T05:54:52;8.20;;;5.00;;
7302;SDS011;54309;48.150;11.540;2022-10-03T05:57:44;8.07;;;4.60;;
7302;SDS011;54309;48.150;11.540;2022-10-03T06:00:17;10.70;;;4.37;;
7302;SDS011;54309;48.150;11.540;2022-10-03T06:02:50;8.23;;;4.63;;
7302;SDS011;54309;48.150;11.540;2022-10-03T06:05:22;7.23;;;4.57;;
7302;SDS011;54309;48.150;11.540;2022-10-03T06:07:56;10.70;;;4.97;;
7302;SDS011;54309;48.150;11.540;2022-10-03T06:10:38;12.17;;;5.23;;
7302;SDS011;54309;48.150;11.540;2022-10-03T06:13:11;7.90;;;5.37;;
7302;SDS011;54309;48.150;11.540;2022-10-03T06:15:45;8.93;;;4.23;;
7302;SDS011;54309;48.150;11.540;2022-10-03T06:18:25;7.83;;;4.50;;
7302;SDS011;54309;48.150;11.540;2022-10-03T06:21:07;9.40;;;4.50;;
7302;SDS011;54309;48.150;11.540;2022-10-03T06:23:51;6.33;;;4.70;;
7302;SDS011;54309;48.150;11.540;2022-10-03T06:26:31;10.10;;;4.80;;
7302;SDS011;54309;48.150;11.540;2022-10-03T06:35:01;11.00;;;4.90;;
7302;SDS011;54309;48.150;11.540;2022-10-03T06:45:54;9.93;;;5.80;;
7302;SDS011;54309;48.150;11.540;2022-10-03T06:56:49;11.23;;;6.27;;
7302;SDS011;54309;48.150;11.540;2022-10-03T07:04:53;12.17;;;5.53;;
7302;SDS011;54309;48.150;11.540;2022-10-03T07:07:35;12.03;;;6.03;;
7302;SDS011;54309;48.150;11.540;2022-10-03T07:10:17;11.90;;;5.80;;
7302;SDS011;54309;48.150;11.540;2022-10-03T07:15:47;8.10;;;5.50;;
7302;SDS011;54309;48.150;11.540;2022-10-03T07:18:34;12.20;;;6.73;;
7302;SDS011;54309;48.150;11.540;2022-10-03T07:21:20;12.10;;;6.47;;
7302;SDS011;54309;48.150;11.540;2022-10-03T07:23:54;9.27;;;5.90;;
7302;SDS011;54309;48.150;11.540;2022-10-03T07:29:37;10.30;;;6.23;;
7302;SDS011;54309;48.150;11.540;2022-10-03T07:32:15;9.63;;;6.60;;
7302;SDS011;54309;48.150;11.540;2022-10-03T07:35:01;10.67;;;6.17;;
7302;SDS011;54309;48.150;11.540;2022-10-03T07:40:37;8.13;;;5.90;;
7302;SDS011;54309;48.150;11.540;2022-10-03T07:46:02;9.27;;;6.50;;
7302;SDS011;54309;48.150;11.540;2022-10-03T07:48:46;12.27;;;5.67;;
7302;SDS011;54309;48.150;11.540;2022-10-03T07:51:28;12.37;;;6.63;;
7302;SDS011;54309;48.150;11.540;2022-10-03T07:56:51;8.80;;;5.37;;
7302;SDS011;54309;48.150;11.540;2022-10-03T08:02:12;11.07;;;6.37;;
7302;SDS011;54309;48.150;11.540;2022-10-03T08:04:55;12.03;;;6.60;;
7302;SDS011;54309;48.150;11.540;2022-10-03T08:07:34;37.13;;;17.07;;
7302;SDS011;54309;48.150;11.540;2022-10-03T08:10:12;20.37;;;9.83;;
7302;SDS011;54309;48.150;11.540;2022-10-03T08:15:44;9.77;;;6.43;;
7302;SDS011;54309;48.150;11.540;2022-10-03T08:18:20;13.37;;;6.83;;
7302;SDS011;54309;48.150;11.540;2022-10-03T08:20:54;8.90;;;6.20;;
7302;SDS011;54309;48.150;11.540;2022-10-03T08:23:30;10.27;;;6.27;;
7302;SDS011;54309;48.150;11.540;2022-10-03T08:26:06;10.93;;;5.80;;
7302;SDS011;54309;48.150;11.540;2022-10-03T08:28:56;10.53;;;5.60;;
7302;SDS011;54309;48.150;11.540;2022-10-03T08:31:43;9.77;;;6.73;;
7302;SDS011;54309;48.150;11.540;2022-10-03T08:39:49;10.93;;;6.23;;
7302;SDS011;54309;48.150;11.540;2022-10-03T08:45:30;9.57;;;6.27;;
7302;SDS011;54309;48.150;11.540;2022-10-03T08:51:03;13.93;;;5.73;;
7302;SDS011;54309;48.150;11.540;2022-10-03T08:53:50;9.60;;;6.03;;
7302;SDS011;54309;48.150;11.540;2022-10-03T08:56:25;9.97;;;6.47;;
7302;SDS011;54309;48.150;11.540;2022-10-03T09:04:54;10.83;;;6.30;;
7302;SDS011;54309;48.150;11.540;2022-10-03T09:13:26;9.90;;;6.20;;
7302;SDS011;54309;48.150;11.540;2022-10-03T09:16:08;8.47;;;6.30;;
7302;SDS011;54309;48.150;11.540;2022-10-03T09:18:41;8.47;;;6.23;;
7302;SDS011;54309;48.150;11.540;2022-10-03T09:21:34;10.13;;;6.27;;
7302;SDS011;54309;48.150;11.540;2022-10-03T09:24:26;8.97;;;6.30;;
7302;SDS011;54309;48.150;11.540;2022-10-03T09:27:18;9.03;;;6.40;;
7302;SDS011;54309;48.150;11.540;2022-10-03T09:30:02;12.03;;;5.93;;
7302;SDS011;54309;48.150;11.540;2022-10-03T09:32:45;10.27;;;6.10;;
7302;SDS011;54309;48.150;11.540;2022-10-03T09:35:28;8.67;;;5.27;;
7302;SDS011;54309;48.150;11.540;2022-10-03T09:38:04;7.87;;;5.70;;
7302;SDS011;54309;48.150;11.540;2022-10-03T09:40:53;19.57;;;11.17;;
7302;SDS011;54309;48.150;11.540;2022-10-03T09:46:26;12.70;;;6.23;;
7302;SDS011;54309;48.150;11.540;2022-10-03T09:51:51;16.23;;;9.87;;
7302;SDS011;54309;48.150;11.540;2022-10-03T09:54:24;10.53;;;5.43;;
7302;SDS011;54309;48.150;11.540;2022-10-03T09:57:15;8.50;;;5.33;;
7302;SDS011;54309;48.150;11.540;2022-10-03T09:59:51;8.00;;;4.83;;
7302;SDS011;54309;48.150;11.540;2022-10-03T10:02:31;11.50;;;6.43;;
7302;SDS011;54309;48.150;11.540;2022-10-03T10:05:13;10.07;;;5.77;;
7302;SDS011;54309;48.150;11.540;2022-10-03T10:08:03;11.03;;;6.23;;
7302;SDS011;54309;48.150;11.540;2022-10-03T10:16:27;7.77;;;5.87;;
7302;SDS011;54309;48.150;11.540;2022-10-03T10:21:51;13.83;;;7.93;;
7302;SDS011;54309;48.150;11.540;2022-10-03T10:24:39;9.70;;;7.63;;
7302;SDS011;54309;48.150;11.540;2022-10-03T10:27:16;8.87;;;6.23;;
7302;SDS011;54309;48.150;11.540;2022-10-03T10:32:55;8.43;;;7.73;;
7302;SDS011;54309;48.150;11.540;2022-10-03T10:38:26;7.67;;;6.40;;
7302;SDS011;54309;48.150;11.540;2022-10-03T10:41:04;9.30;;;7.17;;
7302;SDS011;54309;48.150;11.540;2022-10-03T10:43:55;10.57;;;8.83;;
7302;SDS011;54309;48.150;11.540;2022-10-03T10:46:37;9.87;;;8.90;;
7302;SDS011;54309;48.150;11.540;2022-10-03T11:00:33;8.20;;;7.50;;
7302;SDS011;54309;48.150;11.540;2022-10-03T11:08:45;8.97;;;8.27;;
7302;SDS011;54309;48.150;11.540;2022-10-03T11:14:06;8.17;;;7.57;;
7302;SDS011;54309;48.150;11.540;2022-10-03T11:16:46;6.20;;;5.83;;
7302;SDS011;54309;48.150;11.540;2022-10-03T11:28:12;7.50;;;6.90;;
7302;SDS011;54309;48.150;11.540;2022-10-03T11:36:48;9.73;;;6.90;;
7302;SDS011;54309;48.150;11.540;2022-10-03T11:39:20;7.03;;;6.43;;
7302;SDS011;54309;48.150;11.540;2022-10-03T11:41:50;6.40;;;5.90;;
7302;SDS011;54309;48.150;11.540;2022-10-03T11:44:23;7.03;;;6.40;;
7302;SDS011;54309;48.150;11.540;2022-10-03T11:46:57;7.32;;;6.75;;
7302;SDS011;54309;48.150;11.540;2022-10-03T11:49:31;6.95;;;6.40;;
7302;SDS011;54309;48.150;11.540;2022-10-03T11:52:07;7.70;;;7.00;;
7302;SDS011;54309;48.150;11.540;2022-10-03T11:54:36;7.57;;;6.87;;
7302;SDS011;54309;48.150;11.540;2022-10-03T11:57:06;7.20;;;6.50;;
7302;SDS011;54309;48.150;11.540;2022-10-03T11:59:42;7.17;;;6.57;;
7302;SDS011;54309;48.150;11.540;2022-10-03T12:02:14;7.25;;;6.10;;
7302;SDS011;54309;48.150;11.540;2022-10-03T12:04:45;7.55;;;6.85;;
7302;SDS011;54309;48.150;11.540;2022-10-03T12:07:16;7.05;;;6.45;;
7302;SDS011;54309;48.150;11.540;2022-10-03T12:10:06;6.70;;;6.20;;
7302;SDS011;54309;48.150;11.540;2022-10-03T12:12:39;5.88;;;5.45;;
7302;SDS011;54309;48.150;11.540;2022-10-03T12:15:15;5.78;;;5.40;;
7302;SDS011;54309;48.150;11.540;2022-10-03T12:17:44;5.95;;;5.45;;
7302;SDS011;54309;48.150;11.540;2022-10-03T12:20:15;7.15;;;6.10;;
7302;SDS011;54309;48.150;11.540;2022-10-03T12:22:46;6.57;;;6.07;;
7302;SDS011;54309;48.150;11.540;2022-10-03T12:25:18;7.23;;;6.53;;
7302;SDS011;54309;48.150;11.540;2022-10-03T12:27:49;6.47;;;5.97;;
7302;SDS011;54309;48.150;11.540;2022-10-03T12:30:18;8.10;;;7.17;;
7302;SDS011;54309;48.150;11.540;2022-10-03T12:32:50;7.43;;;6.60;;
7302;SDS011;54309;48.150;11.540;2022-10-03T12:35:26;7.10;;;6.40;;
7302;SDS011;54309;48.150;11.540;2022-10-03T12:37:59;6.80;;;6.20;;
7302;SDS011;54309;48.150;11.540;2022-10-03T12:40:29;7.60;;;7.00;;
7302;SDS011;54309;48.150;11.540;2022-10-03T12:43:01;8.93;;;6.73;;
7302;SDS011;54309;48.150;11.540;2022-10-03T12:45:31;8.30;;;6.20;;
7302;SDS011;54309;48.150;11.540;2022-10-03T12:48:04;6.83;;;6.33;;
7302;SDS011;54309;48.150;11.540;2022-10-03T12:50:41;11.03;;;6.63;;
7302;SDS011;54309;48.150;11.540;2022-10-03T12:53:30;6.90;;;5.93;;
7302;SDS011;54309;48.150;11.540;2022-10-03T12:56:09;7.07;;;6.47;;
7302;SDS011;54309;48.150;11.540;2022-10-03T12:58:41;5.67;;;5.27;;
7302;SDS011;54309;48.150;11.540;2022-10-03T13:01:12;6.70;;;6.10;;
7302;SDS011;54309;48.150;11.540;2022-10-03T13:03:44;7.33;;;6.50;;
7302;SDS011;54309;48.150;11.540;2022-10-03T13:06:20;7.25;;;6.57;;
7302;SDS011;54309;48.150;11.540;2022-10-03T13:08:57;6.63;;;6.10;;
7302;SDS011;54309;48.150;11.540;2022-10-03T13:11:30;7.22;;;6.72;;
7302;SDS011;54309;48.150;11.540;2022-10-03T13:14:05;7.55;;;6.95;;
7302;SDS011;54309;48.150;11.540;2022-10-03T13:16:37;6.75;;;6.30;;
7302;SDS011;54309;48.150;11.540;2022-10-03T13:19:08;6.45;;;5.95;;
7302;SDS011;54309;48.150;11.540;2022-10-03T13:24:35;7.27;;;6.53;;
7302;SDS011;54309;48.150;11.540;2022-10-03T13:29:50;6.57;;;6.17;;
7302;SDS011;54309;48.150;11.540;2022-10-03T13:32:26;7.33;;;5.97;;
7302;SDS011;54309;48.150;11.540;2022-10-03T13:34:59;6.53;;;5.93;;
7302;SDS011;54309;48.150;11.540;2022-10-03T13:40:43;6.93;;;5.57;;
7302;SDS011;54309;48.150;11.540;2022-10-03T13:43:14;6.63;;;6.13;;
7302;SDS011;54309;48.150;11.540;2022-10-03T13:45:43;7.07;;;6.37;;
7302;SDS011;54309;48.150;11.540;2022-10-03T13:48:14;6.53;;;5.93;;
7302;SDS011;54309;48.150;11.540;2022-10-03T13:50:44;6.45;;;5.85;;
7302;SDS011;54309;48.150;11.540;2022-10-03T13:53:17;6.70;;;6.18;;
7302;SDS011;54309;48.150;11.540;2022-10-03T13:55:49;6.88;;;6.25;;
7302;SDS011;54309;48.150;11.540;2022-10-03T13:58:20;7.80;;;6.80;;
7302;SDS011;54309;48.150;11.540;2022-10-03T14:01:01;6.22;;;5.65;;
7302;SDS011;54309;48.150;11.540;2022-10-03T14:03:38;5.75;;;5.30;;
7302;SDS011;54309;48.150;11.540;2022-10-03T14:06:11;6.25;;;5.65;;
7302;SDS011;54309;48.150;11.540;2022-10-03T14:08:45;7.05;;;6.30;;
7302;SDS011;54309;48.150;11.540;2022-10-03T14:11:20;9.13;;;5.82;;
7302;SDS011;54309;48.150;11.540;2022-10-03T14:13:53;5.68;;;5.22;;
7302;SDS011;54309;48.150;11.540;2022-10-03T14:16:26;7.05;;;5.80;;
7302;SDS011;54309;48.150;11.540;2022-10-03T14:18:56;6.82;;;4.78;;
7302;SDS011;54309;48.150;11.540;2022-10-03T14:24:19;6.22;;;5.22;;
7302;SDS011;54309;48.150;11.540;2022-10-03T14:26:51;5.40;;;5.03;;
7302;SDS011;54309;48.150;11.540;2022-10-03T14:29:26;4.95;;;4.50;;
7302;SDS011;54309;48.150;11.540;2022-10-03T14:31:57;4.85;;;4.50;;
7302;SDS011;54309;48.150;11.540;2022-10-03T14:34:32;4.55;;;4.10;;
7302;SDS011;54309;48.150;11.540;2022-10-03T14:37:03;5.10;;;4.63;;
7302;SDS011;54309;48.150;11.540;2022-10-03T14:39:34;6.20;;;5.00;;
7302;SDS011;54309;48.150;11.540;2022-10-03T14:42:17;7.07;;;5.23;;
7302;SDS011;54309;48.150;11.540;2022-10-03T14:44:47;6.27;;;5.13;;
7302;SDS011;54309;48.150;11.540;2022-10-03T14:47:18;6.13;;;5.27;;
7302;SDS011;54309;48.150;11.540;2022-10-03T14:49:48;5.60;;;5.30;;
7302;SDS011;54309;48.150;11.540;2022-10-03T14:52:20;5.63;;;5.13;;
7302;SDS011;54309;48.150;11.540;2022-10-03T14:54:51;5.70;;;5.07;;
7302;SDS011;54309;48.150;11.540;2022-10-03T14:57:25;5.40;;;5.00;;
7302;SDS011;54309;48.150;11.540;2022-10-03T14:59:56;5.60;;;5.03;;
7302;SDS011;54309;48.150;11.540;2022-10-03T15:02:28;5.50;;;5.10;;
7302;SDS011;54309;48.150;11.540;2022-10-03T15:05:01;6.70;;;5.53;;
7302;SDS011;54309;48.150;11.540;2022-10-03T15:07:31;7.57;;;5.30;;
7302;SDS011;54309;48.150;11.540;2022-10-03T15:10:00;7.03;;;5.43;;
7302;SDS011;54309;48.150;11.540;2022-10-03T15:12:31;4.97;;;4.67;;
7302;SDS011;54309;48.150;11.540;2022-10-03T15:15:00;5.23;;;4.63;;
7302;SDS011;54309;48.150;11.540;2022-10-03T15:17:31;5.05;;;4.13;;
7302;SDS011;54309;48.150;11.540;2022-10-03T15:20:00;6.00;;;5.55;;
7302;SDS011;54309;48.150;11.540;2022-10-03T15:22:28;6.50;;;4.80;;
7302;SDS011;54309;48.150;11.540;2022-10-03T15:24:58;5.65;;;5.10;;
7302;SDS011;54309;48.150;11.540;2022-10-03T15:27:27;6.13;;;5.18;;
7302;SDS011;54309;48.150;11.540;2022-10-03T15:29:56;5.93;;;5.22;;
7302;SDS011;54309;48.150;11.540;2022-10-03T15:32:24;5.57;;;5.07;;
7302;SDS011;54309;48.150;11.540;2022-10-03T15:34:54;5.30;;;4.90;;
7302;SDS011;54309;48.150;11.540;2022-10-03T15:37:23;6.75;;;5.10;;
7302;SDS011;54309;48.150;11.540;2022-10-03T15:39:53;5.03;;;4.70;;
7302;SDS011;54309;48.150;11.540;2022-10-03T15:42:27;4.97;;;4.68;;
7302;SDS011;54309;48.150;11.540;2022-10-03T15:44:57;5.10;;;4.60;;
7302;SDS011;54309;48.150;11.540;2022-10-03T15:47:26;5.07;;;4.57;;
7302;SDS011;54309;48.150;11.540;2022-10-03T15:49:56;9.20;;;5.00;;
7302;SDS011;54309;48.150;11.540;2022-10-03T15:52:26;9.13;;;5.60;;
7302;SDS011;54309;48.150;11.540;2022-10-03T15:54:58;5.53;;;5.00;;
7302;SDS011;54309;48.150;11.540;2022-10-03T15:57:28;9.10;;;8.07;;
7302;SDS011;54309;48.150;11.540;2022-10-03T15:59:57;8.53;;;5.67;;
7302;SDS011;54309;48.150;11.540;2022-10-03T16:02:28;5.70;;;4.60;;
7302;SDS011;54309;48.150;11.540;2022-10-03T16:04:56;6.77;;;5.10;;
7302;SDS011;54309;48.150;11.540;2022-10-03T16:07:27;5.17;;;4.67;;
7302;SDS011;54309;48.150;11.540;2022-10-03T16:10:00;7.87;;;5.37;;
7302;SDS011;54309;48.150;11.540;2022-10-03T16:12:34;5.47;;;4.97;;
7302;SDS011;54309;48.150;11.540;2022-10-03T16:15:12;6.53;;;5.33;;
7302;SDS011;54309;48.150;11.540;2022-10-03T16:17:42;5.63;;;5.07;;
7302;SDS011;54309;48.150;11.540;2022-10-03T16:20:14;5.03;;;4.60;;
7302;SDS011;54309;48.150;11.540;2022-10-03T16:22:44;5.30;;;4.80;;
7302;SDS011;54309;48.150;11.540;2022-10-03T16:25:14;7.07;;;4.87;;
7302;SDS011;54309;48.150;11.540;2022-10-03T16:27:43;4.87;;;4.47;;
7302;SDS011;54309;48.150;11.540;2022-10-03T16:30:15;5.73;;;4.57;;
7302;SDS011;54309;48.150;11.540;2022-10-03T16:32:46;6.60;;;4.90;;
7302;SDS011;54309;48.150;11.540;2022-10-03T16:35:20;4.73;;;4.33;;
7302;SDS011;54309;48.150;11.540;2022-10-03T16:37:49;4.60;;;4.20;;
7302;SDS011;54309;48.150;11.540;2022-10-03T16:40:17;6.23;;;4.83;;
7302;SDS011;54309;48.150;11.540;2022-10-03T16:42:46;5.70;;;4.40;;
7302;SDS011;54309;48.150;11.540;2022-10-03T16:45:25;4.50;;;4.10;;
7302;SDS011;54309;48.150;11.540;2022-10-03T16:47:54;5.13;;;4.60;;
7302;SDS011;54309;48.150;11.540;2022-10-03T16:50:41;5.47;;;5.03;;
7302;SDS011;54309;48.150;11.540;2022-10-03T16:53:09;5.90;;;4.77;;
7302;SDS011;54309;48.150;11.540;2022-10-03T16:55:42;5.60;;;4.27;;
7302;SDS011;54309;48.150;11.540;2022-10-03T16:58:13;5.57;;;4.53;;
7302;SDS011;54309;48.150;11.540;2022-10-03T17:00:48;6.73;;;5.10;;
7302;SDS011;54309;48.150;11.540;2022-10-03T17:03:17;5.03;;;4.33;;
7302;SDS011;54309;48.150;11.540;2022-10-03T17:05:45;7.40;;;4.90;;
7302;SDS011;54309;48.150;11.540;2022-10-03T17:08:13;7.80;;;4.80;;
7302;SDS011;54309;48.150;11.540;2022-10-03T17:10:43;5.30;;;4.03;;
7302;SDS011;54309;48.150;11.540;2022-10-03T17:13:12;6.17;;;4.70;;
7302;SDS011;54309;48.150;11.540;2022-10-03T17:15:46;4.27;;;3.87;;
7302;SDS011;54309;48.150;11.540;2022-10-03T17:18:19;6.60;;;4.77;;
7302;SDS011;54309;48.150;11.540;2022-10-03T17:20:48;6.87;;;4.50;;
7302;SDS011;54309;48.150;11.540;2022-10-03T17:23:20;5.20;;;4.50;;
7302;SDS011;54309;48.150;11.540;2022-10-03T17:25:49;6.70;;;5.00;;
7302;SDS011;54309;48.150;11.540;2022-10-03T17:28:26;5.43;;;4.10;;
7302;SDS011;54309;48.150;11.540;2022-10-03T17:30:59;6.20;;;4.60;;
7302;SDS011;54309;48.150;11.540;2022-10-03T17:33:29;6.33;;;4.40;;
7302;SDS011;54309;48.150;11.540;2022-10-03T17:36:05;7.33;;;5.80;;
7302;SDS011;54309;48.150;11.540;2022-10-03T17:38:41;11.47;;;5.90;;
7302;SDS011;54309;48.150;11.540;2022-10-03T17:41:13;5.80;;;4.63;;
7302;SDS011;54309;48.150;11.540;2022-10-03T17:43:43;6.57;;;4.70;;
7302;SDS011;54309;48.150;11.540;2022-10-03T17:46:14;7.67;;;5.00;;
7302;SDS011;54309;48.150;11.540;2022-10-03T17:48:44;4.57;;;4.17;;
7302;SDS011;54309;48.150;11.540;2022-10-03T17:51:24;7.63;;;6.13;;
7302;SDS011;54309;48.150;11.540;2022-10-03T17:53:53;6.83;;;4.33;;
7302;SDS011;54309;48.150;11.540;2022-10-03T17:56:22;9.27;;;4.53;;
7302;SDS011;54309;48.150;11.540;2022-10-03T17:58:50;7.00;;;4.97;;
7302;SDS011;54309;48.150;11.540;2022-10-03T18:01:19;8.27;;;4.40;;
7302;SDS011;54309;48.150;11.540;2022-10-03T18:03:49;7.13;;;4.30;;
7302;SDS011;54309;48.150;11.540;2022-10-03T18:06:38;6.50;;;4.20;;
7302;SDS011;54309;48.150;11.540;2022-10-03T18:09:06;6.60;;;4.73;;
7302;SDS011;54309;48.150;11.540;2022-10-03T18:11:36;7.87;;;4.70;;
7302;SDS011;54309;48.150;11.540;2022-10-03T18:14:05;7.63;;;4.27;;
7302;SDS011;54309;48.150;11.540;2022-10-03T18:16:36;5.43;;;4.27;;
7302;SDS011;54309;48.150;11.540;2022-10-03T18:19:10;5.93;;;4.40;;
7302;SDS011;54309;48.150;11.540;2022-10-03T18:21:49;6.27;;;4.20;;